ADDS METAR Data INFO
IDs: Format: Raw Decoded Include TAF

Data at: 0936 UTC 25 Nov 2017

KOZA 250915Z AUTO 00000KT 10SM CLR 02/M01 A2990 RMK AO2
KOZA 250855Z AUTO 00000KT 10SM CLR 03/00 A2990 RMK AO2
KOZA 250835Z AUTO 00000KT 7SM CLR 03/00 A2990 RMK AO2
KOZA 250815Z AUTO 00000KT 10SM CLR 04/00 A2990 RMK AO2
KOZA 250755Z AUTO 00000KT 10SM CLR 05/00 A2991 RMK AO2
KOZA 250735Z AUTO 00000KT 10SM CLR 05/00 A2991 RMK AO2
KOZA 250715Z AUTO 00000KT 10SM CLR 04/00 A2991 RMK AO2
KOZA 250655Z AUTO 00000KT 7SM CLR 05/00 A2991 RMK AO2
KOZA 250635Z AUTO 00000KT 7SM CLR 06/00 A2991 RMK AO2
KOZA 250615Z AUTO 00000KT 10SM CLR 07/00 A2991 RMK AO2
KOZA 250555Z AUTO 00000KT 7SM CLR 10/01 A2991 RMK AO2
KOZA 250535Z AUTO 22004KT 10SM CLR 09/01 A2990 RMK AO2
KOZA 250515Z AUTO 23003KT 10SM CLR 11/02 A2991 RMK AO2
KOZA 250455Z AUTO 23004KT 10SM CLR 11/02 A2990 RMK AO2
KOZA 250435Z AUTO 00000KT 10SM CLR 12/02 A2990 RMK AO2
KOZA 250415Z AUTO 22003KT 10SM CLR 12/01 A2991 RMK AO2
KOZA 250355Z AUTO 00000KT 10SM CLR 12/01 A2990 RMK AO2
KOZA 250335Z AUTO 19004KT 7SM CLR 12/01 A2990 RMK AO2
KOZA 250315Z AUTO 21003KT 10SM CLR 13/01 A2990 RMK AO2
KOZA 250255Z AUTO 21006KT 10SM CLR 12/00 A2989 RMK AO2
KOZA 250235Z AUTO 22003KT 10SM CLR 13/00 A2990 RMK AO2
KOZA 250215Z AUTO 20006KT 10SM CLR 13/00 A2989 RMK AO2
KOZA 250155Z AUTO 20007KT 7SM CLR 14/00 A2989 RMK AO2
KOZA 250135Z AUTO 20007KT 10SM CLR 16/00 A2989 RMK AO2
KOZA 250115Z AUTO 21007KT 10SM CLR 17/00 A2989 RMK AO2
KOZA 250055Z AUTO 20009KT 10SM CLR 17/00 A2988 RMK AO2
KOZA 250035Z AUTO 19006KT 10SM CLR 18/00 A2988 RMK AO2
KOZA 250015Z AUTO 19006KT 10SM CLR 18/00 A2987 RMK AO2
KOZA 242355Z AUTO 20008KT 10SM CLR 20/00 A2987 RMK AO2
KOZA 242335Z AUTO 20009G18KT 7SM CLR 21/00 A2986 RMK AO2
KOZA 242315Z AUTO 20009G17KT 10SM CLR 22/00 A2987 RMK AO2
KOZA 242255Z AUTO 20012G19KT 10SM CLR 23/00 A2987 RMK AO2
KOZA 242235Z AUTO 21012G17KT 10SM CLR 24/00 A2987 RMK AO2
KOZA 242215Z AUTO 20010G19KT 10SM CLR 24/M01 A2987 RMK AO2
KOZA 242155Z AUTO 22013G18KT 10SM CLR 26/M01 A2987 RMK AO2
KOZA 242135Z AUTO 20014G20KT 10SM CLR 26/M01 A2988 RMK AO2
KOZA 242115Z AUTO 21016G19KT 10SM CLR 26/M01 A2988 RMK AO2
KOZA 242055Z AUTO 21010G20KT 7SM CLR 26/M01 A2988 RMK AO2
KOZA 242035Z AUTO 20011G20KT 10SM CLR 26/M01 A2989 RMK AO2
KOZA 242015Z AUTO 22010G17KT 10SM CLR 26/M01 A2990 RMK AO2
KOZA 241955Z AUTO 21008G21KT 10SM CLR 26/M01 A2991 RMK AO2
KOZA 241935Z AUTO 20012G19KT 10SM CLR 25/M01 A2992 RMK AO2
KOZA 241915Z AUTO 22008G19KT 10SM CLR 25/M01 A2994 RMK AO2
KOZA 241855Z AUTO 20011G18KT 10SM CLR 25/00 A2995 RMK AO2
KOZA 241835Z AUTO 20015G18KT 10SM CLR 24/00 A2996 RMK AO2
KOZA 241815Z AUTO 21013KT 7SM CLR 23/00 A2997 RMK AO2
KOZA 241755Z AUTO 20011G17KT 10SM CLR 23/00 A2999 RMK AO2
KOZA 241735Z AUTO 21012KT 7SM CLR 22/00 A3000 RMK AO2
KOZA 241715Z AUTO 19012G15KT 7SM CLR 21/00 A3000 RMK AO2
KOZA 241655Z AUTO 20009G16KT 10SM CLR 20/01 A3002 RMK AO2
KOZA 241635Z AUTO 19012KT 10SM CLR 19/01 A3002 RMK AO2
KOZA 241615Z AUTO 19011G15KT 10SM CLR 18/01 A3002 RMK AO2
KOZA 241555Z AUTO 19010KT 10SM CLR 16/01 A3002 RMK AO2
KOZA 241535Z AUTO 19008KT 7SM CLR 14/01 A3003 RMK AO2
KOZA 241515Z AUTO 19004KT 10SM CLR 12/01 A3003 RMK AO2
KOZA 241455Z AUTO 18003KT 10SM CLR 10/00 A3004 RMK AO2
KOZA 241435Z AUTO 00000KT 10SM CLR 05/M01 A3004 RMK AO2
KOZA 241415Z AUTO 00000KT 10SM CLR 02/M02 A3003 RMK AO2
KOZA 241355Z AUTO 00000KT 10SM CLR 00/M03 A3003 RMK AO2
KOZA 241335Z AUTO 00000KT 10SM CLR 00/M03 A3003 RMK AO2
KOZA 241315Z AUTO 00000KT 10SM CLR 00/M04 A3004 RMK AO2
KOZA 241255Z AUTO 00000KT 10SM CLR 00/M04 A3004 RMK AO2
KOZA 241235Z AUTO 00000KT 10SM CLR 00/M04 A3004 RMK AO2
KOZA 241215Z AUTO 00000KT 10SM CLR 00/M04 A3004 RMK AO2
KOZA 241155Z AUTO 00000KT 10SM CLR 00/M03 A3004 RMK AO2
KOZA 241135Z AUTO 00000KT 10SM CLR 00/M03 A3004 RMK AO2
KOZA 241115Z AUTO 00000KT 10SM CLR 01/M03 A3004 RMK AO2
KOZA 241055Z AUTO 04003KT 10SM CLR 00/M05 A3004 RMK AO2
KOZA 241035Z AUTO 00000KT 10SM CLR 00/M05 A3004 RMK AO2
KOZA 241015Z AUTO 00000KT 10SM CLR 01/M03 A3005 RMK AO2
KOZA 240955Z AUTO 00000KT 7SM CLR 01/M04 A3005 RMK AO2
KOZA 240935Z AUTO 00000KT 10SM CLR 00/M05 A3005 RMK AO2
KOZA 240915Z AUTO 00000KT 10SM CLR 01/M03 A3005 RMK AO2
KOZA 240855Z AUTO 00000KT 10SM CLR 02/M04 A3006 RMK AO2
KOZA 240835Z AUTO 00000KT 10SM CLR 01/M04 A3007 RMK AO2
KOZA 240815Z AUTO 00000KT 10SM CLR 01/M05 A3007 RMK AO2
KOZA 240755Z AUTO 00000KT 10SM CLR 02/M03 A3008 RMK AO2
KOZA 240735Z AUTO 00000KT 10SM CLR 02/M03 A3008 RMK AO2
KOZA 240715Z AUTO 00000KT 10SM CLR 02/M04 A3009 RMK AO2
KOZA 240655Z AUTO 00000KT 10SM CLR 02/M03 A3010 RMK AO2
KOZA 240635Z AUTO 00000KT 10SM CLR 02/M03 A3011 RMK AO2
KOZA 240615Z AUTO 00000KT 10SM CLR 03/M03 A3011 RMK AO2
KOZA 240555Z AUTO 00000KT 10SM CLR 03/M03 A3011 RMK AO2
KOZA 240535Z AUTO 00000KT 10SM CLR 03/M03 A3011 RMK AO2
KOZA 240515Z AUTO 00000KT 10SM CLR 04/M03 A3012 RMK AO2
KOZA 240455Z AUTO 00000KT 10SM CLR 04/M03 A3012 RMK AO2
KOZA 240435Z AUTO 00000KT 10SM CLR 04/M03 A3012 RMK AO2
KOZA 240415Z AUTO 00000KT 10SM CLR 06/M03 A3012 RMK AO2
KOZA 240355Z AUTO 00000KT 10SM CLR 06/M03 A3012 RMK AO2
KOZA 240335Z AUTO 00000KT 10SM CLR 06/M02 A3012 RMK AO2
KOZA 240315Z AUTO 00000KT 10SM CLR 07/M03 A3012 RMK AO2
KOZA 240255Z AUTO 00000KT 10SM CLR 07/M03 A3012 RMK AO2
KOZA 240235Z AUTO 19003KT 10SM CLR 08/M02 A3012 RMK AO2
KOZA 240215Z AUTO 00000KT 10SM CLR 08/M02 A3012 RMK AO2
KOZA 240155Z AUTO 00000KT 10SM CLR 09/M02 A3012 RMK AO2
KOZA 240135Z AUTO 00000KT 10SM CLR 10/M02 A3011 RMK AO2
KOZA 240115Z AUTO 00000KT 10SM CLR 11/M02 A3011 RMK AO2
KOZA 240055Z AUTO 00000KT 10SM CLR 12/M02 A3011 RMK AO2
KOZA 240035Z AUTO 00000KT 10SM CLR 14/M02 A3010 RMK AO2
KOZA 240015Z AUTO 00000KT 10SM CLR 15/M02 A3010 RMK AO2
KOZA 232355Z AUTO 00000KT 10SM CLR 18/M02 A3010 RMK AO2
KOZA 232335Z AUTO 28003KT 10SM CLR 20/M02 A3010 RMK AO2
KOZA 232315Z AUTO 29003KT 10SM CLR 21/M03 A3010 RMK AO2
KOZA 232255Z AUTO 28003KT 10SM CLR 21/M03 A3010 RMK AO2
KOZA 232235Z AUTO 00000KT 10SM CLR 21/M03 A3010 RMK AO2
KOZA 232215Z AUTO 20004KT 10SM CLR 22/M02 A3010 RMK AO2
KOZA 232155Z AUTO 19003KT 10SM CLR 22/M03 A3010 RMK AO2